KWRI/WRI METAR and TAF weather

Enter ICAO airport designator
Station Type Date Time Source
KWRI METAR 2021/08/04 18:56 UTC NOAA

KWRI 041856Z AUTO 07007KT 10SM SCT070 BKN200 23/18 A3010 RMK AO2 SLP192 T02260179


Station Type Date Time Source
KWRI Decoded METAR 2021/08/04 18:56 UTC NOAA

Mcguire Air Force Base, NJ, United States (KWRI) 40-01N 074-36W
Aug 04, 2021 - 02:56 PM EDT / 2021.08.04 1856 UTC
Wind: from the ENE (070 degrees) at 8 MPH (7 KT):0
Visibility: 10 mile(s):0
Sky conditions: mostly cloudy
Temperature: 72.7 F (22.6 C)
Dew Point: 64.2 F (17.9 C)
Relative Humidity: 74%
Pressure (altimeter): 30.1 in. Hg (1019 hPa)
ob: KWRI 041856Z AUTO 07007KT 10SM SCT070 BKN200 23/18 A3010 RMK AO2 SLP192 T02260179
cycle: 19

Station Type Date Time Source
KWRI TAF 2021/08/04 18:15 UTC NOAA

TAF KWRI 041800Z 0418/0524 06006KT 9999 SCT100 BKN200 QNH3005INS
BECMG 0500/0501 02008KT 9999 BKN035 OVC080 QNH3003INS
BECMG 0506/0507 36008KT 9999 VCSH BKN018 OVC030 QNH3004INS
BECMG 0512/0513 36009KT 9999 NSW SCT030 BKN050 QNH3007INS TX28/0518Z TN17/0510Z

Example: see airport list